Hauptseite
METAR-TAF:

METAR-TAF

Flughäfen :

Boscombe Down, England

MoD Boscombe Down

Breite: 51-10N, Länge: 001-45W, Höhe: 124 m

Beobachtung

Neuester Wetterbericht von vor 36 Minuten, um 10:50 UTC
Wind 16 kt aus Südwest
Temperatur 9°C
Luftfeuchtigkeit 66%
Luftdruck 999 hPa
Sichtweite 10 km oder mehr
Leicht bewölkt in der Höhe von 4000 ft

METAR: EGDM 231050Z 23016KT 9999 FEW040 09/03 Q0999 BLU NOSIG

Zeit: 11:26 (11:26 UTC)

Prognose

Neuester Wetterbericht von vor 3 Stunden und 39 Minuten, um 07:47 UTC
Gültige Prognose vom 23 um 09 UTC bis 23 um 18 UTC
Wind 14 kt aus West
Sichtweite 10 km oder mehr
Aufgelockert bewölkt in der Höhe von 3000 ft
Übergehend zu
vom 23 um 09 UTC bis 23 um 11 UTC
Wind 16 kt aus West/Südwest, Böen bis zu 26 kt
Übergehend zu
vom 23 um 14 UTC bis 23 um 16 UTC
Wind 10 kt aus West/Südwest

TAF: EGDM 230747Z 2309/2318 27014KT 9999 SCT030 BECMG 2309/2311 24016G26KT BECMG 2314/2316 24010KT

Wetterbeobachtungen und Prognosen von mehr als 4000 Flughäfen (METAR und TAF Bericht).

Die verfügbaren Stationen werden durch gelbe und rote Markierungen auf der Karte dargestellt.

Führen Sie die Maus auf sie, um den Namen der Station zu sehen.

Darauf klicken, um die Beobachtung von Wetterbeobachtungen und Prognosen zu sehen.

Um die Karte zu ändern : klicken Sie auf den grünen Tasten mit einem schwarzen Kreuz Zum Vergrößern, auf den grünen Button mit einem Gedankenstrich zu verkleinern, oder auf die grünen Pfeile für benachbarte Karten.


METAR-TAF: